sensor_id;sensor_type;location;lat;lon;timestamp;temperature;humidity
37356;DHT22;48747;50.250;18.848;2023-04-04T00:00:51;0.70;99.90
37356;DHT22;48747;50.250;18.848;2023-04-04T00:02:54;0.60;99.90
37356;DHT22;48747;50.250;18.848;2023-04-04T00:04:57;0.60;99.90
37356;DHT22;48747;50.250;18.848;2023-04-04T00:07:00;0.60;99.90
37356;DHT22;48747;50.250;18.848;2023-04-04T00:09:03;0.60;99.90
37356;DHT22;48747;50.250;18.848;2023-04-04T00:11:06;0.50;99.90
37356;DHT22;48747;50.250;18.848;2023-04-04T00:13:09;0.50;99.90
37356;DHT22;48747;50.250;18.848;2023-04-04T00:15:12;0.40;99.90
37356;DHT22;48747;50.250;18.848;2023-04-04T00:17:16;0.40;99.90
37356;DHT22;48747;50.250;18.848;2023-04-04T00:19:19;0.40;99.90
37356;DHT22;48747;50.250;18.848;2023-04-04T00:21:22;0.40;99.90
37356;DHT22;48747;50.250;18.848;2023-04-04T00:23:26;0.40;99.90
37356;DHT22;48747;50.250;18.848;2023-04-04T00:25:29;0.40;99.90
37356;DHT22;48747;50.250;18.848;2023-04-04T00:27:32;0.40;99.90
37356;DHT22;48747;50.250;18.848;2023-04-04T00:29:35;0.30;99.90
37356;DHT22;48747;50.250;18.848;2023-04-04T00:31:38;0.30;99.90
37356;DHT22;48747;50.250;18.848;2023-04-04T00:33:42;0.30;99.90
37356;DHT22;48747;50.250;18.848;2023-04-04T00:35:45;0.20;99.90
37356;DHT22;48747;50.250;18.848;2023-04-04T00:37:50;0.20;99.90
37356;DHT22;48747;50.250;18.848;2023-04-04T00:39:53;0.20;99.90
37356;DHT22;48747;50.250;18.848;2023-04-04T00:41:56;0.20;99.90
37356;DHT22;48747;50.250;18.848;2023-04-04T00:44:00;0.10;99.90
37356;DHT22;48747;50.250;18.848;2023-04-04T00:46:03;0.20;99.90
37356;DHT22;48747;50.250;18.848;2023-04-04T00:48:06;0.10;99.90
37356;DHT22;48747;50.250;18.848;2023-04-04T00:50:09;0.10;99.90
37356;DHT22;48747;50.250;18.848;2023-04-04T00:52:13;0.10;99.90
37356;DHT22;48747;50.250;18.848;2023-04-04T00:54:16;0.10;99.90
37356;DHT22;48747;50.250;18.848;2023-04-04T00:56:19;0.00;99.90
37356;DHT22;48747;50.250;18.848;2023-04-04T00:58:24;0.00;99.90
37356;DHT22;48747;50.250;18.848;2023-04-04T01:00:28;-0.10;99.90
37356;DHT22;48747;50.250;18.848;2023-04-04T01:02:31;-0.10;99.90
37356;DHT22;48747;50.250;18.848;2023-04-04T01:04:35;-0.10;99.90
37356;DHT22;48747;50.250;18.848;2023-04-04T01:06:38;-0.10;99.90
37356;DHT22;48747;50.250;18.848;2023-04-04T01:08:42;-0.10;99.90
37356;DHT22;48747;50.250;18.848;2023-04-04T01:10:45;-0.10;99.90
37356;DHT22;48747;50.250;18.848;2023-04-04T01:12:49;-0.10;99.90
37356;DHT22;48747;50.250;18.848;2023-04-04T01:14:52;-0.10;99.90
37356;DHT22;48747;50.250;18.848;2023-04-04T01:16:55;-0.10;99.90
37356;DHT22;48747;50.250;18.848;2023-04-04T01:18:58;-0.20;99.90
37356;DHT22;48747;50.250;18.848;2023-04-04T01:21:09;-0.30;99.90
37356;DHT22;48747;50.250;18.848;2023-04-04T01:23:13;-0.30;99.90
37356;DHT22;48747;50.250;18.848;2023-04-04T01:25:23;-0.20;99.90
37356;DHT22;48747;50.250;18.848;2023-04-04T01:27:23;-0.30;99.90
37356;DHT22;48747;50.250;18.848;2023-04-04T01:29:26;-0.30;99.90
37356;DHT22;48747;50.250;18.848;2023-04-04T01:31:39;-0.30;99.90
37356;DHT22;48747;50.250;18.848;2023-04-04T01:33:53;-0.40;99.90
37356;DHT22;48747;50.250;18.848;2023-04-04T01:36:20;-0.40;99.90
37356;DHT22;48747;50.250;18.848;2023-04-04T01:38:32;-0.40;99.90
37356;DHT22;48747;50.250;18.848;2023-04-04T01:40:35;-0.40;99.90
37356;DHT22;48747;50.250;18.848;2023-04-04T01:42:40;-0.50;99.90
37356;DHT22;48747;50.250;18.848;2023-04-04T01:44:44;-0.40;99.90
37356;DHT22;48747;50.250;18.848;2023-04-04T01:46:52;-0.50;99.90
37356;DHT22;48747;50.250;18.848;2023-04-04T01:48:56;-0.50;99.90
37356;DHT22;48747;50.250;18.848;2023-04-04T01:51:00;-0.50;99.90
37356;DHT22;48747;50.250;18.848;2023-04-04T01:53:03;-0.50;99.90
37356;DHT22;48747;50.250;18.848;2023-04-04T01:55:07;-0.60;99.90
37356;DHT22;48747;50.250;18.848;2023-04-04T01:57:10;-0.60;99.90
37356;DHT22;48747;50.250;18.848;2023-04-04T01:59:13;-0.60;99.90
37356;DHT22;48747;50.250;18.848;2023-04-04T02:01:17;-0.60;99.90
37356;DHT22;48747;50.250;18.848;2023-04-04T02:03:20;-0.60;99.90
37356;DHT22;48747;50.250;18.848;2023-04-04T02:05:23;-0.60;99.90
37356;DHT22;48747;50.250;18.848;2023-04-04T02:07:26;-0.60;99.90
37356;DHT22;48747;50.250;18.848;2023-04-04T02:09:30;-0.70;99.90
37356;DHT22;48747;50.250;18.848;2023-04-04T02:11:33;-0.60;99.90
37356;DHT22;48747;50.250;18.848;2023-04-04T02:13:36;-0.70;99.90
37356;DHT22;48747;50.250;18.848;2023-04-04T02:15:41;-0.70;99.90
37356;DHT22;48747;50.250;18.848;2023-04-04T02:17:46;-0.80;99.90
37356;DHT22;48747;50.250;18.848;2023-04-04T02:19:49;-0.80;99.90
37356;DHT22;48747;50.250;18.848;2023-04-04T02:21:53;-0.80;99.90
37356;DHT22;48747;50.250;18.848;2023-04-04T02:23:57;-0.80;99.90
37356;DHT22;48747;50.250;18.848;2023-04-04T02:26:00;-0.80;99.90
37356;DHT22;48747;50.250;18.848;2023-04-04T02:28:03;-0.80;99.90
37356;DHT22;48747;50.250;18.848;2023-04-04T02:30:07;-0.70;99.90
37356;DHT22;48747;50.250;18.848;2023-04-04T02:32:10;-0.70;99.90
37356;DHT22;48747;50.250;18.848;2023-04-04T02:34:13;-0.70;99.90
37356;DHT22;48747;50.250;18.848;2023-04-04T02:36:16;-0.70;99.90
37356;DHT22;48747;50.250;18.848;2023-04-04T02:38:19;-0.70;99.90
37356;DHT22;48747;50.250;18.848;2023-04-04T02:40:23;-0.70;99.90
37356;DHT22;48747;50.250;18.848;2023-04-04T02:42:26;-0.70;99.90
37356;DHT22;48747;50.250;18.848;2023-04-04T02:44:29;-0.70;99.90
37356;DHT22;48747;50.250;18.848;2023-04-04T02:46:32;-0.80;99.90
37356;DHT22;48747;50.250;18.848;2023-04-04T02:48:35;-0.70;99.90
37356;DHT22;48747;50.250;18.848;2023-04-04T02:50:39;-0.80;99.90
37356;DHT22;48747;50.250;18.848;2023-04-04T02:52:42;-0.80;99.90
37356;DHT22;48747;50.250;18.848;2023-04-04T02:54:45;-0.70;99.90
37356;DHT22;48747;50.250;18.848;2023-04-04T02:56:48;-0.80;99.90
37356;DHT22;48747;50.250;18.848;2023-04-04T02:58:51;-0.80;99.90
37356;DHT22;48747;50.250;18.848;2023-04-04T03:00:54;-0.80;99.90
37356;DHT22;48747;50.250;18.848;2023-04-04T03:02:57;-0.70;99.90
37356;DHT22;48747;50.250;18.848;2023-04-04T03:05:00;-0.70;99.90
37356;DHT22;48747;50.250;18.848;2023-04-04T03:07:03;-0.70;99.90
37356;DHT22;48747;50.250;18.848;2023-04-04T03:09:07;-0.70;99.90
37356;DHT22;48747;50.250;18.848;2023-04-04T03:11:10;-0.80;99.90
37356;DHT22;48747;50.250;18.848;2023-04-04T03:13:14;-0.80;99.90
37356;DHT22;48747;50.250;18.848;2023-04-04T03:15:17;-0.70;99.90
37356;DHT22;48747;50.250;18.848;2023-04-04T03:17:20;-0.70;99.90
37356;DHT22;48747;50.250;18.848;2023-04-04T03:19:24;-0.70;99.90
37356;DHT22;48747;50.250;18.848;2023-04-04T03:21:27;-0.80;99.90
37356;DHT22;48747;50.250;18.848;2023-04-04T03:23:30;-0.80;99.90
37356;DHT22;48747;50.250;18.848;2023-04-04T03:25:33;-0.80;99.90
37356;DHT22;48747;50.250;18.848;2023-04-04T03:27:36;-0.80;99.90
37356;DHT22;48747;50.250;18.848;2023-04-04T03:29:40;-0.80;99.90
37356;DHT22;48747;50.250;18.848;2023-04-04T03:31:43;-0.90;99.90
37356;DHT22;48747;50.250;18.848;2023-04-04T03:33:47;-0.80;99.90
37356;DHT22;48747;50.250;18.848;2023-04-04T03:35:50;-0.80;99.90
37356;DHT22;48747;50.250;18.848;2023-04-04T03:37:53;-0.90;99.90
37356;DHT22;48747;50.250;18.848;2023-04-04T03:39:57;-0.90;99.90
37356;DHT22;48747;50.250;18.848;2023-04-04T03:42:00;-0.90;99.90
37356;DHT22;48747;50.250;18.848;2023-04-04T03:44:04;-1.00;99.90
37356;DHT22;48747;50.250;18.848;2023-04-04T03:46:07;-1.00;99.90
37356;DHT22;48747;50.250;18.848;2023-04-04T03:48:10;-1.00;99.90
37356;DHT22;48747;50.250;18.848;2023-04-04T03:50:13;-1.10;99.90
37356;DHT22;48747;50.250;18.848;2023-04-04T03:52:16;-1.10;99.90
37356;DHT22;48747;50.250;18.848;2023-04-04T03:54:19;-1.10;99.90
37356;DHT22;48747;50.250;18.848;2023-04-04T03:56:22;-1.20;99.90
37356;DHT22;48747;50.250;18.848;2023-04-04T03:58:27;-1.20;99.90
37356;DHT22;48747;50.250;18.848;2023-04-04T04:00:31;-1.20;99.90
37356;DHT22;48747;50.250;18.848;2023-04-04T04:02:34;-1.30;99.90
37356;DHT22;48747;50.250;18.848;2023-04-04T04:04:37;-1.30;99.90
37356;DHT22;48747;50.250;18.848;2023-04-04T04:06:40;-1.40;99.90
37356;DHT22;48747;50.250;18.848;2023-04-04T04:08:43;-1.30;99.90
37356;DHT22;48747;50.250;18.848;2023-04-04T04:10:46;-1.30;99.90
37356;DHT22;48747;50.250;18.848;2023-04-04T04:12:49;-1.30;99.90
37356;DHT22;48747;50.250;18.848;2023-04-04T04:14:52;-1.30;99.90
37356;DHT22;48747;50.250;18.848;2023-04-04T04:16:55;-1.30;99.90
37356;DHT22;48747;50.250;18.848;2023-04-04T04:18:58;-1.40;99.90
37356;DHT22;48747;50.250;18.848;2023-04-04T04:21:02;-1.30;99.90
37356;DHT22;48747;50.250;18.848;2023-04-04T04:23:06;-1.30;99.90
37356;DHT22;48747;50.250;18.848;2023-04-04T04:25:09;-1.30;99.90
37356;DHT22;48747;50.250;18.848;2023-04-04T04:27:12;-1.30;99.90
37356;DHT22;48747;50.250;18.848;2023-04-04T04:29:15;-1.20;99.90
37356;DHT22;48747;50.250;18.848;2023-04-04T04:31:18;-1.30;99.90
37356;DHT22;48747;50.250;18.848;2023-04-04T04:33:28;-1.30;99.90
37356;DHT22;48747;50.250;18.848;2023-04-04T04:35:34;-1.30;99.90
37356;DHT22;48747;50.250;18.848;2023-04-04T04:37:36;-1.30;99.90
37356;DHT22;48747;50.250;18.848;2023-04-04T04:39:53;-1.40;99.90
37356;DHT22;48747;50.250;18.848;2023-04-04T04:41:44;-1.30;99.90
37356;DHT22;48747;50.250;18.848;2023-04-04T04:43:47;-1.30;99.90
37356;DHT22;48747;50.250;18.848;2023-04-04T04:45:50;-1.30;99.90
37356;DHT22;48747;50.250;18.848;2023-04-04T04:47:53;-1.20;99.90
37356;DHT22;48747;50.250;18.848;2023-04-04T04:49:57;-1.30;99.90
37356;DHT22;48747;50.250;18.848;2023-04-04T04:52:00;-1.20;99.90
37356;DHT22;48747;50.250;18.848;2023-04-04T04:54:03;-1.20;99.90
37356;DHT22;48747;50.250;18.848;2023-04-04T04:56:07;-1.20;99.90
37356;DHT22;48747;50.250;18.848;2023-04-04T04:58:10;-1.20;99.90
37356;DHT22;48747;50.250;18.848;2023-04-04T05:00:14;-1.20;99.90
37356;DHT22;48747;50.250;18.848;2023-04-04T05:02:18;-1.10;99.90
37356;DHT22;48747;50.250;18.848;2023-04-04T05:04:21;-1.10;99.90
37356;DHT22;48747;50.250;18.848;2023-04-04T05:06:24;-1.00;99.90
37356;DHT22;48747;50.250;18.848;2023-04-04T05:08:27;-1.00;99.90
37356;DHT22;48747;50.250;18.848;2023-04-04T05:10:31;-1.00;99.90
37356;DHT22;48747;50.250;18.848;2023-04-04T05:12:34;-1.00;99.90
37356;DHT22;48747;50.250;18.848;2023-04-04T05:14:38;-0.90;99.90
37356;DHT22;48747;50.250;18.848;2023-04-04T05:16:41;-0.80;99.90
37356;DHT22;48747;50.250;18.848;2023-04-04T05:18:44;-0.80;99.90
37356;DHT22;48747;50.250;18.848;2023-04-04T05:20:54;-0.70;99.90
37356;DHT22;48747;50.250;18.848;2023-04-04T05:22:57;-0.60;99.90
37356;DHT22;48747;50.250;18.848;2023-04-04T05:25:00;-0.60;99.90
37356;DHT22;48747;50.250;18.848;2023-04-04T05:27:04;-0.60;99.90
37356;DHT22;48747;50.250;18.848;2023-04-04T05:29:07;-0.60;99.90
37356;DHT22;48747;50.250;18.848;2023-04-04T05:31:10;-0.60;99.90
37356;DHT22;48747;50.250;18.848;2023-04-04T05:33:13;-0.50;99.90
37356;DHT22;48747;50.250;18.848;2023-04-04T05:35:16;-0.50;99.90
37356;DHT22;48747;50.250;18.848;2023-04-04T05:37:19;-0.40;99.90
37356;DHT22;48747;50.250;18.848;2023-04-04T05:39:22;-0.40;99.90
37356;DHT22;48747;50.250;18.848;2023-04-04T05:41:25;-0.40;99.90
37356;DHT22;48747;50.250;18.848;2023-04-04T05:43:29;-0.40;99.90
37356;DHT22;48747;50.250;18.848;2023-04-04T05:45:32;-0.40;99.90
37356;DHT22;48747;50.250;18.848;2023-04-04T05:47:35;-0.50;99.90
37356;DHT22;48747;50.250;18.848;2023-04-04T05:49:38;-0.40;99.90
37356;DHT22;48747;50.250;18.848;2023-04-04T05:51:41;-0.40;99.90
37356;DHT22;48747;50.250;18.848;2023-04-04T05:53:44;-0.40;99.90
37356;DHT22;48747;50.250;18.848;2023-04-04T05:55:52;-0.30;99.90
37356;DHT22;48747;50.250;18.848;2023-04-04T05:57:55;-0.40;99.90
37356;DHT22;48747;50.250;18.848;2023-04-04T05:59:58;-0.20;99.90
37356;DHT22;48747;50.250;18.848;2023-04-04T06:02:01;-0.10;99.90
37356;DHT22;48747;50.250;18.848;2023-04-04T06:04:05;0.00;99.90
37356;DHT22;48747;50.250;18.848;2023-04-04T06:06:08;-0.10;99.90
37356;DHT22;48747;50.250;18.848;2023-04-04T06:08:11;0.00;99.90
37356;DHT22;48747;50.250;18.848;2023-04-04T06:10:14;0.10;99.90
37356;DHT22;48747;50.250;18.848;2023-04-04T06:12:17;0.10;99.90
37356;DHT22;48747;50.250;18.848;2023-04-04T06:14:20;0.00;99.90
37356;DHT22;48747;50.250;18.848;2023-04-04T06:16:23;0.10;99.90
37356;DHT22;48747;50.250;18.848;2023-04-04T06:18:26;0.20;99.90
37356;DHT22;48747;50.250;18.848;2023-04-04T06:20:29;0.20;99.90
37356;DHT22;48747;50.250;18.848;2023-04-04T06:22:32;0.20;99.90
37356;DHT22;48747;50.250;18.848;2023-04-04T06:24:36;0.40;99.90
37356;DHT22;48747;50.250;18.848;2023-04-04T06:26:39;0.40;99.90
37356;DHT22;48747;50.250;18.848;2023-04-04T06:28:49;0.40;99.90
37356;DHT22;48747;50.250;18.848;2023-04-04T06:30:52;0.50;99.90
37356;DHT22;48747;50.250;18.848;2023-04-04T06:32:56;0.50;99.90
37356;DHT22;48747;50.250;18.848;2023-04-04T06:34:59;0.60;99.90
37356;DHT22;48747;50.250;18.848;2023-04-04T06:37:03;0.60;99.60
37356;DHT22;48747;50.250;18.848;2023-04-04T06:39:06;0.70;98.30
37356;DHT22;48747;50.250;18.848;2023-04-04T06:41:11;0.80;97.80
37356;DHT22;48747;50.250;18.848;2023-04-04T06:43:14;0.80;98.30
37356;DHT22;48747;50.250;18.848;2023-04-04T06:45:17;0.90;96.10
37356;DHT22;48747;50.250;18.848;2023-04-04T06:47:21;0.90;94.90
37356;DHT22;48747;50.250;18.848;2023-04-04T06:49:23;0.80;94.50
37356;DHT22;48747;50.250;18.848;2023-04-04T06:51:27;0.90;95.00
37356;DHT22;48747;50.250;18.848;2023-04-04T06:53:30;0.90;94.00
37356;DHT22;48747;50.250;18.848;2023-04-04T06:55:34;0.90;93.40
37356;DHT22;48747;50.250;18.848;2023-04-04T06:57:37;1.00;94.60
37356;DHT22;48747;50.250;18.848;2023-04-04T06:59:40;1.20;93.60
37356;DHT22;48747;50.250;18.848;2023-04-04T07:01:44;1.20;92.50
37356;DHT22;48747;50.250;18.848;2023-04-04T07:03:47;1.40;92.90
37356;DHT22;48747;50.250;18.848;2023-04-04T07:05:53;1.50;91.50
37356;DHT22;48747;50.250;18.848;2023-04-04T07:07:56;1.50;90.10
37356;DHT22;48747;50.250;18.848;2023-04-04T07:09:59;1.40;88.90
37356;DHT22;48747;50.250;18.848;2023-04-04T07:12:02;1.30;87.80
37356;DHT22;48747;50.250;18.848;2023-04-04T07:14:05;1.40;89.60
37356;DHT22;48747;50.250;18.848;2023-04-04T07:16:09;1.50;88.40
37356;DHT22;48747;50.250;18.848;2023-04-04T07:18:12;1.50;89.50
37356;DHT22;48747;50.250;18.848;2023-04-04T07:20:15;1.60;86.00
37356;DHT22;48747;50.250;18.848;2023-04-04T07:22:19;1.70;87.00
37356;DHT22;48747;50.250;18.848;2023-04-04T07:24:22;1.70;84.60
37356;DHT22;48747;50.250;18.848;2023-04-04T07:26:25;1.60;85.50
37356;DHT22;48747;50.250;18.848;2023-04-04T07:28:28;1.70;87.00
37356;DHT22;48747;50.250;18.848;2023-04-04T07:30:32;1.80;86.50
37356;DHT22;48747;50.250;18.848;2023-04-04T07:32:35;1.90;85.80
37356;DHT22;48747;50.250;18.848;2023-04-04T07:34:39;2.00;84.70
37356;DHT22;48747;50.250;18.848;2023-04-04T07:36:42;2.10;85.00
37356;DHT22;48747;50.250;18.848;2023-04-04T07:38:45;2.10;82.90
37356;DHT22;48747;50.250;18.848;2023-04-04T07:40:49;2.30;81.30
37356;DHT22;48747;50.250;18.848;2023-04-04T07:42:52;2.20;80.70
37356;DHT22;48747;50.250;18.848;2023-04-04T07:44:56;2.20;81.50
37356;DHT22;48747;50.250;18.848;2023-04-04T07:46:59;2.30;80.50
37356;DHT22;48747;50.250;18.848;2023-04-04T07:49:02;2.30;80.20
37356;DHT22;48747;50.250;18.848;2023-04-04T07:51:05;2.10;79.50
37356;DHT22;48747;50.250;18.848;2023-04-04T07:53:08;2.10;82.10
37356;DHT22;48747;50.250;18.848;2023-04-04T07:55:11;2.30;80.50
37356;DHT22;48747;50.250;18.848;2023-04-04T07:57:14;2.50;79.40
37356;DHT22;48747;50.250;18.848;2023-04-04T07:59:17;2.40;78.00
37356;DHT22;48747;50.250;18.848;2023-04-04T08:01:20;2.30;79.40
37356;DHT22;48747;50.250;18.848;2023-04-04T08:03:23;2.30;80.60
37356;DHT22;48747;50.250;18.848;2023-04-04T08:05:26;2.00;80.10
37356;DHT22;48747;50.250;18.848;2023-04-04T08:07:29;1.80;80.10
37356;DHT22;48747;50.250;18.848;2023-04-04T08:09:32;1.60;81.00
37356;DHT22;48747;50.250;18.848;2023-04-04T08:11:37;1.50;82.30
37356;DHT22;48747;50.250;18.848;2023-04-04T08:13:40;1.50;81.90
37356;DHT22;48747;50.250;18.848;2023-04-04T08:15:43;1.50;81.80
37356;DHT22;48747;50.250;18.848;2023-04-04T08:17:46;1.50;83.90
37356;DHT22;48747;50.250;18.848;2023-04-04T08:19:49;1.60;80.40
37356;DHT22;48747;50.250;18.848;2023-04-04T08:21:52;1.90;80.30
37356;DHT22;48747;50.250;18.848;2023-04-04T08:23:56;2.30;80.40
37356;DHT22;48747;50.250;18.848;2023-04-04T08:25:59;2.30;77.20
37356;DHT22;48747;50.250;18.848;2023-04-04T08:28:03;2.30;77.20
37356;DHT22;48747;50.250;18.848;2023-04-04T08:30:07;2.30;77.00
37356;DHT22;48747;50.250;18.848;2023-04-04T08:32:10;2.40;77.20
37356;DHT22;48747;50.250;18.848;2023-04-04T08:34:13;2.60;74.70
37356;DHT22;48747;50.250;18.848;2023-04-04T08:36:16;2.70;73.70
37356;DHT22;48747;50.250;18.848;2023-04-04T08:38:20;2.70;72.50
37356;DHT22;48747;50.250;18.848;2023-04-04T08:40:23;2.90;74.00
37356;DHT22;48747;50.250;18.848;2023-04-04T08:42:27;3.00;71.10
37356;DHT22;48747;50.250;18.848;2023-04-04T08:44:33;3.20;71.30
37356;DHT22;48747;50.250;18.848;2023-04-04T08:46:37;3.40;70.30
37356;DHT22;48747;50.250;18.848;2023-04-04T08:48:41;3.50;70.20
37356;DHT22;48747;50.250;18.848;2023-04-04T08:50:46;3.70;70.90
37356;DHT22;48747;50.250;18.848;2023-04-04T08:52:51;4.00;69.80
37356;DHT22;48747;50.250;18.848;2023-04-04T08:54:55;4.30;65.50
37356;DHT22;48747;50.250;18.848;2023-04-04T08:56:59;4.40;62.40
37356;DHT22;48747;50.250;18.848;2023-04-04T08:59:03;4.50;62.00
37356;DHT22;48747;50.250;18.848;2023-04-04T09:01:06;4.70;62.20
37356;DHT22;48747;50.250;18.848;2023-04-04T09:03:17;4.70;63.60
37356;DHT22;48747;50.250;18.848;2023-04-04T09:05:19;4.40;63.10
37356;DHT22;48747;50.250;18.848;2023-04-04T09:07:24;4.20;63.60
37356;DHT22;48747;50.250;18.848;2023-04-04T09:09:29;3.90;63.90
37356;DHT22;48747;50.250;18.848;2023-04-04T09:11:33;3.90;64.20
37356;DHT22;48747;50.250;18.848;2023-04-04T09:13:38;4.10;63.70
37356;DHT22;48747;50.250;18.848;2023-04-04T09:15:47;4.10;64.20
37356;DHT22;48747;50.250;18.848;2023-04-04T09:17:50;4.00;64.10
37356;DHT22;48747;50.250;18.848;2023-04-04T09:19:53;3.90;64.20
37356;DHT22;48747;50.250;18.848;2023-04-04T09:21:57;3.80;64.50
37356;DHT22;48747;50.250;18.848;2023-04-04T09:24:01;3.60;64.20
37356;DHT22;48747;50.250;18.848;2023-04-04T09:26:04;3.20;65.90
37356;DHT22;48747;50.250;18.848;2023-04-04T09:28:08;3.10;67.40
37356;DHT22;48747;50.250;18.848;2023-04-04T09:30:11;3.00;68.50
37356;DHT22;48747;50.250;18.848;2023-04-04T09:32:15;3.20;69.00
37356;DHT22;48747;50.250;18.848;2023-04-04T09:34:19;3.10;66.70
37356;DHT22;48747;50.250;18.848;2023-04-04T09:36:22;3.00;66.40
37356;DHT22;48747;50.250;18.848;2023-04-04T09:38:28;2.90;66.70
37356;DHT22;48747;50.250;18.848;2023-04-04T09:40:37;2.90;68.30
37356;DHT22;48747;50.250;18.848;2023-04-04T09:42:42;3.00;68.70
37356;DHT22;48747;50.250;18.848;2023-04-04T09:44:45;3.40;69.50
37356;DHT22;48747;50.250;18.848;2023-04-04T09:46:48;3.80;69.30
37356;DHT22;48747;50.250;18.848;2023-04-04T09:48:53;4.00;65.10
37356;DHT22;48747;50.250;18.848;2023-04-04T09:50:57;4.10;65.40
37356;DHT22;48747;50.250;18.848;2023-04-04T09:53:02;3.90;65.10
37356;DHT22;48747;50.250;18.848;2023-04-04T09:55:05;3.80;65.60
37356;DHT22;48747;50.250;18.848;2023-04-04T09:57:08;3.70;66.00
37356;DHT22;48747;50.250;18.848;2023-04-04T09:59:13;3.50;66.00
37356;DHT22;48747;50.250;18.848;2023-04-04T10:01:17;3.40;64.60
37356;DHT22;48747;50.250;18.848;2023-04-04T10:03:22;3.40;64.30
37356;DHT22;48747;50.250;18.848;2023-04-04T10:05:25;3.60;64.80
37356;DHT22;48747;50.250;18.848;2023-04-04T10:07:30;3.80;65.00
37356;DHT22;48747;50.250;18.848;2023-04-04T10:09:36;3.80;64.30
37356;DHT22;48747;50.250;18.848;2023-04-04T10:11:39;3.90;64.50
37356;DHT22;48747;50.250;18.848;2023-04-04T10:13:42;4.00;64.50
37356;DHT22;48747;50.250;18.848;2023-04-04T10:15:49;3.90;63.90
37356;DHT22;48747;50.250;18.848;2023-04-04T10:17:52;3.70;63.70
37356;DHT22;48747;50.250;18.848;2023-04-04T10:20:01;3.70;64.80
37356;DHT22;48747;50.250;18.848;2023-04-04T10:22:07;3.70;64.70
37356;DHT22;48747;50.250;18.848;2023-04-04T10:24:10;3.90;63.90
37356;DHT22;48747;50.250;18.848;2023-04-04T10:26:16;4.10;64.20
37356;DHT22;48747;50.250;18.848;2023-04-04T10:28:19;4.20;63.00
37356;DHT22;48747;50.250;18.848;2023-04-04T10:30:23;4.10;63.30
37356;DHT22;48747;50.250;18.848;2023-04-04T10:34:42;4.40;63.20
37356;DHT22;48747;50.250;18.848;2023-04-04T10:36:50;4.20;62.20
37356;DHT22;48747;50.250;18.848;2023-04-04T10:41:13;4.20;63.50
37356;DHT22;48747;50.250;18.848;2023-04-04T10:43:18;4.20;63.40
37356;DHT22;48747;50.250;18.848;2023-04-04T10:45:23;4.20;61.80
37356;DHT22;48747;50.250;18.848;2023-04-04T10:47:29;4.30;61.90
37356;DHT22;48747;50.250;18.848;2023-04-04T10:49:33;4.10;63.00
37356;DHT22;48747;50.250;18.848;2023-04-04T10:51:38;4.20;63.30
37356;DHT22;48747;50.250;18.848;2023-04-04T10:53:41;4.00;61.80
37356;DHT22;48747;50.250;18.848;2023-04-04T10:55:45;3.80;61.80
37356;DHT22;48747;50.250;18.848;2023-04-04T10:57:49;3.70;61.90
37356;DHT22;48747;50.250;18.848;2023-04-04T11:00:00;3.80;62.50
37356;DHT22;48747;50.250;18.848;2023-04-04T11:02:05;4.00;61.20
37356;DHT22;48747;50.250;18.848;2023-04-04T11:04:19;4.40;62.10
37356;DHT22;48747;50.250;18.848;2023-04-04T11:06:22;4.70;61.10
37356;DHT22;48747;50.250;18.848;2023-04-04T11:08:26;5.00;60.20
37356;DHT22;48747;50.250;18.848;2023-04-04T11:10:36;5.10;59.40
37356;DHT22;48747;50.250;18.848;2023-04-04T11:12:44;4.90;59.80
37356;DHT22;48747;50.250;18.848;2023-04-04T11:15:07;4.50;59.80
37356;DHT22;48747;50.250;18.848;2023-04-04T11:17:11;4.30;59.90
37356;DHT22;48747;50.250;18.848;2023-04-04T11:19:16;4.40;61.30
37356;DHT22;48747;50.250;18.848;2023-04-04T11:21:20;4.30;60.60
37356;DHT22;48747;50.250;18.848;2023-04-04T11:25:55;4.40;62.90
37356;DHT22;48747;50.250;18.848;2023-04-04T11:28:04;4.20;63.70
37356;DHT22;48747;50.250;18.848;2023-04-04T11:30:12;4.40;64.80
37356;DHT22;48747;50.250;18.848;2023-04-04T11:32:41;4.40;63.90
37356;DHT22;48747;50.250;18.848;2023-04-04T11:34:45;4.30;66.10
37356;DHT22;48747;50.250;18.848;2023-04-04T11:36:50;4.30;64.70
37356;DHT22;48747;50.250;18.848;2023-04-04T11:38:56;4.30;64.30
37356;DHT22;48747;50.250;18.848;2023-04-04T11:41:00;4.30;62.80
37356;DHT22;48747;50.250;18.848;2023-04-04T11:43:09;4.50;65.60
37356;DHT22;48747;50.250;18.848;2023-04-04T11:45:17;4.70;63.40
37356;DHT22;48747;50.250;18.848;2023-04-04T11:47:24;4.70;64.00
37356;DHT22;48747;50.250;18.848;2023-04-04T11:49:28;5.00;64.60
37356;DHT22;48747;50.250;18.848;2023-04-04T11:51:33;4.90;62.50
37356;DHT22;48747;50.250;18.848;2023-04-04T11:53:36;4.70;61.20
37356;DHT22;48747;50.250;18.848;2023-04-04T11:55:41;4.40;62.30
37356;DHT22;48747;50.250;18.848;2023-04-04T11:57:46;4.20;62.30
37356;DHT22;48747;50.250;18.848;2023-04-04T11:59:50;4.30;65.70
37356;DHT22;48747;50.250;18.848;2023-04-04T12:01:53;4.30;63.70
37356;DHT22;48747;50.250;18.848;2023-04-04T12:03:59;4.20;62.90
37356;DHT22;48747;50.250;18.848;2023-04-04T12:06:02;4.10;64.30
37356;DHT22;48747;50.250;18.848;2023-04-04T12:08:06;4.10;65.40
37356;DHT22;48747;50.250;18.848;2023-04-04T12:10:10;4.10;63.60
37356;DHT22;48747;50.250;18.848;2023-04-04T12:12:14;4.00;63.50
37356;DHT22;48747;50.250;18.848;2023-04-04T12:14:22;4.00;62.90
37356;DHT22;48747;50.250;18.848;2023-04-04T12:16:27;3.90;64.60
37356;DHT22;48747;50.250;18.848;2023-04-04T12:18:30;4.00;64.10
37356;DHT22;48747;50.250;18.848;2023-04-04T12:20:37;4.10;63.80
37356;DHT22;48747;50.250;18.848;2023-04-04T12:22:38;4.10;62.60
37356;DHT22;48747;50.250;18.848;2023-04-04T12:24:42;4.00;62.90
37356;DHT22;48747;50.250;18.848;2023-04-04T12:26:46;4.10;63.00
37356;DHT22;48747;50.250;18.848;2023-04-04T12:28:51;3.90;62.30
37356;DHT22;48747;50.250;18.848;2023-04-04T12:30:55;3.90;63.50
37356;DHT22;48747;50.250;18.848;2023-04-04T12:32:59;4.00;63.40
37356;DHT22;48747;50.250;18.848;2023-04-04T12:35:03;4.10;64.10
37356;DHT22;48747;50.250;18.848;2023-04-04T12:37:08;4.20;63.80
37356;DHT22;48747;50.250;18.848;2023-04-04T12:39:15;4.10;63.00
37356;DHT22;48747;50.250;18.848;2023-04-04T12:41:18;4.00;63.00
37356;DHT22;48747;50.250;18.848;2023-04-04T12:43:21;4.00;63.10
37356;DHT22;48747;50.250;18.848;2023-04-04T12:45:25;4.00;64.10
37356;DHT22;48747;50.250;18.848;2023-04-04T12:47:30;4.00;63.10
37356;DHT22;48747;50.250;18.848;2023-04-04T12:49:40;4.40;62.30
37356;DHT22;48747;50.250;18.848;2023-04-04T12:51:45;4.50;62.30
37356;DHT22;48747;50.250;18.848;2023-04-04T12:53:52;4.60;61.90
37356;DHT22;48747;50.250;18.848;2023-04-04T12:55:59;4.70;61.80
37356;DHT22;48747;50.250;18.848;2023-04-04T12:58:00;4.50;61.00
37356;DHT22;48747;50.250;18.848;2023-04-04T13:00:04;4.50;61.30
37356;DHT22;48747;50.250;18.848;2023-04-04T13:02:11;4.20;61.70
37356;DHT22;48747;50.250;18.848;2023-04-04T13:04:14;4.20;62.50
37356;DHT22;48747;50.250;18.848;2023-04-04T13:06:18;4.20;63.40